createdAt,value
2023-03-20T00:01:58.225Z,8.40
2023-03-20T00:04:26.630Z,8.38
2023-03-20T00:06:54.466Z,8.33
2023-03-20T00:09:25.460Z,8.27
2023-03-20T00:11:55.347Z,8.26
2023-03-20T00:14:24.827Z,8.24
2023-03-20T00:16:53.104Z,8.23
2023-03-20T00:19:23.852Z,8.22
2023-03-20T00:21:51.895Z,8.24
2023-03-20T00:24:19.842Z,8.23
2023-03-20T00:26:50.704Z,8.22
2023-03-20T00:29:23.328Z,8.19
2023-03-20T00:31:51.481Z,8.15
2023-03-20T00:34:22.182Z,8.08
2023-03-20T00:36:49.807Z,8.06
2023-03-20T00:39:17.374Z,8.04
2023-03-20T00:41:50.100Z,8.02
2023-03-20T00:44:24.632Z,8.02
2023-03-20T00:46:55.044Z,8.00
2023-03-20T00:49:26.278Z,7.99
2023-03-20T00:51:53.841Z,8.00
2023-03-20T00:54:21.532Z,8.00
2023-03-20T00:56:55.817Z,7.99
2023-03-20T00:59:28.013Z,8.01
2023-03-20T01:01:56.479Z,7.99
2023-03-20T01:04:24.273Z,7.97
2023-03-20T01:06:52.504Z,7.98
2023-03-20T01:09:20.068Z,7.96
2023-03-20T01:11:47.849Z,7.96
2023-03-20T01:14:17.900Z,7.96
2023-03-20T01:16:46.924Z,7.93
2023-03-20T01:19:16.729Z,7.82
2023-03-20T01:21:44.889Z,7.82
2023-03-20T01:24:12.472Z,7.81
2023-03-20T01:26:42.245Z,7.74
2023-03-20T01:29:19.019Z,7.73
2023-03-20T01:32:14.708Z,7.70
2023-03-20T01:34:43.406Z,7.65
2023-03-20T01:37:14.490Z,7.67
2023-03-20T01:39:42.344Z,7.71
2023-03-20T01:42:12.668Z,7.71
2023-03-20T01:44:44.046Z,7.74
2023-03-20T01:47:18.213Z,7.72
2023-03-20T01:50:22.207Z,7.70
2023-03-20T01:52:56.469Z,7.73
2023-03-20T01:55:24.240Z,7.74
2023-03-20T01:58:03.009Z,7.76
2023-03-20T02:00:32.160Z,7.81
2023-03-20T02:03:01.498Z,7.86
2023-03-20T02:05:51.922Z,7.86
2023-03-20T02:08:26.786Z,7.83
2023-03-20T02:10:55.716Z,7.87
2023-03-20T02:13:29.810Z,7.91
2023-03-20T02:16:01.156Z,7.89
2023-03-20T02:18:49.771Z,7.95
2023-03-20T02:21:46.416Z,8.03
2023-03-20T02:24:44.626Z,8.04
2023-03-20T02:27:20.774Z,8.07
2023-03-20T02:30:24.199Z,8.05
2023-03-20T02:33:26.905Z,8.01
2023-03-20T02:36:27.447Z,8.02
2023-03-20T02:39:07.846Z,8.00
2023-03-20T02:41:40.146Z,7.97
2023-03-20T02:44:14.654Z,7.98
2023-03-20T02:46:52.736Z,8.01
2023-03-20T02:58:01.007Z,8.04
2023-03-20T03:00:33.484Z,8.03
2023-03-20T03:03:07.724Z,8.02
2023-03-20T03:05:39.564Z,8.09
2023-03-20T03:08:10.728Z,8.08
2023-03-20T03:10:43.706Z,8.11
2023-03-20T03:13:16.865Z,8.18
2023-03-20T03:15:47.717Z,8.24
2023-03-20T03:18:20.003Z,8.31
2023-03-20T03:20:51.184Z,8.37
2023-03-20T03:23:31.683Z,8.42
2023-03-20T03:26:02.118Z,8.52
2023-03-20T03:28:38.706Z,8.63
2023-03-20T03:31:09.363Z,8.71
2023-03-20T03:33:40.873Z,8.83
2023-03-20T03:36:20.651Z,8.98
2023-03-20T03:38:56.569Z,9.09
2023-03-20T03:41:31.178Z,9.18
2023-03-20T03:44:08.863Z,9.26
2023-03-20T03:46:46.299Z,9.30
2023-03-20T03:49:19.653Z,9.31
2023-03-20T03:51:51.773Z,9.33
2023-03-20T03:54:23.534Z,9.35
2023-03-20T03:57:12.908Z,9.37
2023-03-20T03:59:45.862Z,9.37
2023-03-20T04:02:14.020Z,9.35
2023-03-20T04:04:46.395Z,9.35
2023-03-20T04:07:15.002Z,9.32
2023-03-20T04:09:42.636Z,9.28
2023-03-20T04:12:31.564Z,9.26
2023-03-20T04:15:03.237Z,9.25
2023-03-20T04:17:33.389Z,9.24
2023-03-20T04:20:01.336Z,9.22
2023-03-20T04:22:29.032Z,9.22
2023-03-20T04:25:00.585Z,9.25
2023-03-20T04:27:29.162Z,9.26
2023-03-20T04:29:57.702Z,9.29
2023-03-20T04:32:49.865Z,9.30
2023-03-20T04:35:31.104Z,9.31
2023-03-20T04:38:03.827Z,9.32
2023-03-20T04:40:34.026Z,9.31
2023-03-20T04:43:01.637Z,9.31
2023-03-20T04:45:29.442Z,9.34
2023-03-20T04:47:58.512Z,9.31
2023-03-20T04:50:26.214Z,9.32
2023-03-20T04:52:54.867Z,9.36
2023-03-20T04:55:22.760Z,9.38
2023-03-20T04:57:51.509Z,9.43
2023-03-20T05:00:19.747Z,9.38
2023-03-20T05:02:47.490Z,9.42
2023-03-20T05:05:17.884Z,9.39
2023-03-20T05:07:45.933Z,9.30
2023-03-20T05:10:20.520Z,9.36
2023-03-20T05:12:56.941Z,9.32
2023-03-20T05:15:31.992Z,9.28
2023-03-20T05:18:31.856Z,9.27
2023-03-20T05:21:30.142Z,9.29
2023-03-20T05:24:18.184Z,9.32
2023-03-20T05:27:04.063Z,9.25
2023-03-20T05:29:48.303Z,9.23
2023-03-20T05:32:27.975Z,9.21
2023-03-20T05:35:09.348Z,9.25
2023-03-20T05:37:55.047Z,9.20
2023-03-20T05:40:42.348Z,9.19
2023-03-20T05:43:16.077Z,9.25
2023-03-20T05:45:56.789Z,9.35
2023-03-20T05:48:30.547Z,9.34
2023-03-20T05:51:13.949Z,9.38
2023-03-20T05:53:56.995Z,9.39
2023-03-20T05:56:44.995Z,9.42
2023-03-20T05:59:23.681Z,9.46
2023-03-20T06:02:05.370Z,9.50
2023-03-20T06:04:37.270Z,9.52
2023-03-20T06:07:40.106Z,9.56
2023-03-20T06:10:13.957Z,9.58
2023-03-20T06:12:42.734Z,9.63
2023-03-20T06:15:11.149Z,9.67
2023-03-20T06:17:43.604Z,9.77
2023-03-20T06:20:14.368Z,9.80
2023-03-20T06:22:41.959Z,9.85
2023-03-20T06:25:10.488Z,9.92
2023-03-20T06:27:44.166Z,9.95
2023-03-20T06:30:12.814Z,10.02
2023-03-20T06:32:41.483Z,9.92
2023-03-20T06:35:12.282Z,9.91
2023-03-20T06:37:44.670Z,9.97
2023-03-20T06:40:17.572Z,9.94
2023-03-20T06:42:46.552Z,9.96
2023-03-20T06:45:15.718Z,9.91
2023-03-20T06:48:01.420Z,9.81
2023-03-20T06:50:29.217Z,9.76
2023-03-20T06:52:59.533Z,9.70
2023-03-20T06:55:41.541Z,9.69
2023-03-20T06:58:10.613Z,9.70
2023-03-20T07:00:39.145Z,9.57
2023-03-20T07:03:08.674Z,9.57
2023-03-20T07:05:36.780Z,9.60
2023-03-20T07:08:08.505Z,9.63
2023-03-20T07:10:36.484Z,9.68
2023-03-20T07:13:04.779Z,9.82
2023-03-20T07:15:34.558Z,10.00
2023-03-20T07:18:02.586Z,10.03
2023-03-20T07:20:30.313Z,10.03
2023-03-20T07:22:58.086Z,10.08
2023-03-20T07:25:39.675Z,10.16
2023-03-20T07:28:11.086Z,10.24
2023-03-20T07:30:43.542Z,10.22
2023-03-20T07:33:12.010Z,10.24
2023-03-20T07:35:40.622Z,10.23
2023-03-20T07:38:09.108Z,10.32
2023-03-20T07:40:45.914Z,10.39
2023-03-20T07:43:16.749Z,10.25
2023-03-20T07:46:11.615Z,10.48
2023-03-20T07:48:39.669Z,10.56
2023-03-20T07:51:07.998Z,10.62
2023-03-20T07:53:35.651Z,10.66
2023-03-20T07:56:05.361Z,10.81
2023-03-20T07:58:32.950Z,10.83
2023-03-20T08:01:03.550Z,10.81
2023-03-20T08:03:32.811Z,11.05
2023-03-20T08:06:01.637Z,11.16
2023-03-20T08:08:29.465Z,11.16
2023-03-20T08:10:57.208Z,11.23
2023-03-20T08:13:24.747Z,11.06
2023-03-20T08:15:52.638Z,11.24
2023-03-20T08:18:22.360Z,11.28
2023-03-20T08:20:51.491Z,11.20
2023-03-20T08:23:20.797Z,11.08
2023-03-20T08:25:49.251Z,11.07
2023-03-20T08:28:17.418Z,10.83
2023-03-20T08:30:45.421Z,10.90
2023-03-20T08:33:13.952Z,10.93
2023-03-20T08:35:41.621Z,11.14
2023-03-20T08:38:13.194Z,11.27
2023-03-20T08:40:42.022Z,11.53
2023-03-20T08:43:09.891Z,11.61
2023-03-20T08:45:37.974Z,11.46
2023-03-20T08:48:05.815Z,11.74
2023-03-20T08:50:33.539Z,11.82
2023-03-20T08:53:01.205Z,11.99
2023-03-20T08:55:30.237Z,12.19
2023-03-20T08:57:58.205Z,11.92
2023-03-20T09:00:27.501Z,11.88
2023-03-20T09:02:55.217Z,11.60
2023-03-20T09:05:22.979Z,11.61
2023-03-20T09:07:51.291Z,11.88
2023-03-20T09:10:19.069Z,11.64
2023-03-20T09:12:47.890Z,11.67
2023-03-20T09:15:15.484Z,11.41
2023-03-20T09:17:43.000Z,11.42
2023-03-20T09:20:11.781Z,11.63
2023-03-20T09:22:41.062Z,11.64
2023-03-20T09:25:09.654Z,11.52
2023-03-20T09:27:37.325Z,11.83
2023-03-20T09:30:08.230Z,12.01
2023-03-20T09:32:36.244Z,12.01
2023-03-20T09:35:04.543Z,12.05
2023-03-20T09:37:32.037Z,12.11
2023-03-20T09:39:59.703Z,11.97
2023-03-20T09:42:39.409Z,11.69
2023-03-20T09:45:15.539Z,11.85
2023-03-20T09:47:50.815Z,11.86
2023-03-20T09:50:27.134Z,11.86
2023-03-20T09:52:59.146Z,11.84
2023-03-20T09:55:34.805Z,11.81
2023-03-20T09:58:10.967Z,11.79
2023-03-20T10:00:43.718Z,11.81
2023-03-20T10:03:19.816Z,11.69
2023-03-20T10:05:50.965Z,11.91
2023-03-20T10:08:22.165Z,11.61
2023-03-20T10:10:53.593Z,11.91
2023-03-20T10:13:40.176Z,12.10
2023-03-20T10:16:18.351Z,12.03
2023-03-20T10:18:52.529Z,11.91
2023-03-20T10:21:26.234Z,11.91
2023-03-20T10:24:01.358Z,12.05
2023-03-20T10:26:30.994Z,11.97
2023-03-20T10:29:00.001Z,11.93
2023-03-20T10:31:38.458Z,12.11
2023-03-20T10:34:24.863Z,12.24
2023-03-20T10:37:05.346Z,12.53
2023-03-20T10:39:50.206Z,13.03
2023-03-20T10:42:22.726Z,13.42
2023-03-20T10:44:57.366Z,13.68
2023-03-20T10:47:32.132Z,13.90
2023-03-20T10:50:03.940Z,13.97
2023-03-20T10:52:34.894Z,14.00
2023-03-20T10:55:07.862Z,13.52
2023-03-20T10:57:41.909Z,13.47
2023-03-20T11:00:15.381Z,13.94
2023-03-20T11:02:44.410Z,13.90
2023-03-20T11:05:23.076Z,13.25
2023-03-20T11:07:54.190Z,13.20
2023-03-20T11:10:22.055Z,13.41
2023-03-20T11:12:52.248Z,13.73
2023-03-20T11:15:23.807Z,13.79
2023-03-20T11:17:57.508Z,13.93
2023-03-20T11:20:27.924Z,14.12
2023-03-20T11:23:00.641Z,14.38
2023-03-20T11:25:33.381Z,14.46
2023-03-20T11:28:32.866Z,14.74
2023-03-20T11:31:05.257Z,14.65
2023-03-20T11:33:38.425Z,14.57
2023-03-20T11:36:12.998Z,14.21
2023-03-20T11:38:46.004Z,14.53
2023-03-20T11:41:19.627Z,14.28
2023-03-20T11:43:47.240Z,14.27
2023-03-20T11:46:15.446Z,14.42
2023-03-20T11:48:46.515Z,14.63
2023-03-20T11:51:17.873Z,14.50
2023-03-20T11:54:01.180Z,14.47
2023-03-20T11:56:30.545Z,14.44
2023-03-20T11:59:00.910Z,14.33
2023-03-20T12:01:30.903Z,14.38
2023-03-20T12:04:05.105Z,14.33
2023-03-20T12:06:43.824Z,14.64
2023-03-20T12:09:18.927Z,15.03
2023-03-20T12:11:55.446Z,15.13
2023-03-20T12:14:33.846Z,15.32
2023-03-20T12:17:30.830Z,15.36
2023-03-20T12:20:04.798Z,15.74
2023-03-20T12:22:37.849Z,15.73
2023-03-20T12:25:16.568Z,15.45
2023-03-20T12:27:49.051Z,15.20
2023-03-20T12:30:21.608Z,15.12
2023-03-20T12:32:57.236Z,15.30
2023-03-20T12:35:29.052Z,15.47
2023-03-20T12:37:56.791Z,16.17
2023-03-20T12:40:34.350Z,16.18
2023-03-20T12:43:06.701Z,15.85
2023-03-20T12:45:44.216Z,15.89
2023-03-20T12:48:37.609Z,15.30
2023-03-20T12:51:13.691Z,15.95
2023-03-20T12:53:53.423Z,16.72
2023-03-20T12:56:32.209Z,17.11
2023-03-20T12:59:07.995Z,17.56
2023-03-20T13:01:41.983Z,17.28
2023-03-20T13:04:44.601Z,16.63
2023-03-20T13:07:20.322Z,16.57
2023-03-20T13:09:58.076Z,16.31
2023-03-20T13:12:34.335Z,16.26
2023-03-20T13:15:14.981Z,16.56
2023-03-20T13:17:50.964Z,16.30
2023-03-20T13:20:27.949Z,16.10
2023-03-20T13:23:06.082Z,16.04
2023-03-20T13:25:57.469Z,16.24
2023-03-20T13:28:31.766Z,16.61
2023-03-20T13:31:07.318Z,16.28
2023-03-20T13:33:46.288Z,17.36
2023-03-20T13:36:24.256Z,17.91
2023-03-20T13:39:01.174Z,18.21
2023-03-20T13:41:29.448Z,18.16
2023-03-20T13:44:01.106Z,17.62
2023-03-20T13:46:34.986Z,18.24
2023-03-20T13:49:09.641Z,18.08
2023-03-20T13:51:43.215Z,17.97
2023-03-20T13:54:33.060Z,18.04
2023-03-20T13:57:08.090Z,17.11
2023-03-20T13:59:44.501Z,16.12
2023-03-20T14:02:27.500Z,15.70
2023-03-20T14:05:02.214Z,16.35
2023-03-20T14:07:32.216Z,17.13
2023-03-20T14:10:39.766Z,16.24
2023-03-20T14:13:14.368Z,16.26
2023-03-20T14:15:56.159Z,16.87
2023-03-20T14:18:26.279Z,16.61
2023-03-20T14:20:56.977Z,16.57
2023-03-20T14:23:34.877Z,16.88
2023-03-20T14:26:22.813Z,16.72
2023-03-20T14:28:56.622Z,16.43
2023-03-20T14:31:27.728Z,16.47
2023-03-20T14:34:01.317Z,16.52
2023-03-20T14:36:45.810Z,16.14
2023-03-20T14:39:23.468Z,16.15
2023-03-20T14:42:06.519Z,16.23
2023-03-20T14:44:52.448Z,16.33
2023-03-20T14:47:31.112Z,15.98
2023-03-20T14:50:07.021Z,15.81
2023-03-20T14:52:46.782Z,15.99
2023-03-20T14:55:47.388Z,15.77
2023-03-20T14:58:54.393Z,15.34
2023-03-20T15:01:44.044Z,15.20
2023-03-20T15:04:23.963Z,14.87
2023-03-20T15:06:57.439Z,14.54
2023-03-20T15:09:27.632Z,14.36
2023-03-20T15:11:59.531Z,14.45
2023-03-20T15:14:30.225Z,14.52
2023-03-20T15:16:59.143Z,14.20
2023-03-20T15:19:27.042Z,14.22
2023-03-20T15:21:55.778Z,14.45
2023-03-20T15:24:24.418Z,14.38
2023-03-20T15:26:54.452Z,14.50
2023-03-20T15:29:22.881Z,14.42
2023-03-20T15:32:12.426Z,14.18
2023-03-20T15:34:42.439Z,14.27
2023-03-20T15:37:15.305Z,14.12
2023-03-20T15:39:45.661Z,14.16
2023-03-20T15:42:15.818Z,14.05
2023-03-20T15:44:47.929Z,14.09
2023-03-20T15:47:21.131Z,14.28
2023-03-20T15:49:54.015Z,14.52
2023-03-20T15:52:28.672Z,14.61
2023-03-20T15:54:58.017Z,14.63
2023-03-20T15:57:30.764Z,14.54
2023-03-20T15:59:59.253Z,14.57
2023-03-20T16:02:30.675Z,14.65
2023-03-20T16:04:58.369Z,14.57
2023-03-20T16:07:30.917Z,14.59
2023-03-20T16:09:59.576Z,14.73
2023-03-20T16:12:27.866Z,14.65
2023-03-20T16:14:56.748Z,14.60
2023-03-20T16:17:26.038Z,14.65
2023-03-20T16:19:55.256Z,14.52
2023-03-20T16:22:26.050Z,14.48
2023-03-20T16:24:58.182Z,14.41
2023-03-20T16:27:29.156Z,14.31
2023-03-20T16:29:57.647Z,14.11
2023-03-20T16:32:36.654Z,14.29
2023-03-20T16:35:09.863Z,14.50
2023-03-20T16:37:44.889Z,14.51
2023-03-20T16:40:19.316Z,14.44
2023-03-20T16:42:47.443Z,14.38
2023-03-20T16:45:22.560Z,14.23
2023-03-20T16:47:50.438Z,14.02
2023-03-20T16:50:21.986Z,14.08
2023-03-20T16:52:52.379Z,14.18
2023-03-20T16:55:27.389Z,14.12
2023-03-20T16:57:58.702Z,14.06
2023-03-20T17:00:30.108Z,14.28
2023-03-20T17:03:16.730Z,14.41
2023-03-20T17:05:58.153Z,14.10
2023-03-20T17:08:32.411Z,13.88
2023-03-20T17:11:09.693Z,13.84
2023-03-20T17:13:37.198Z,13.62
2023-03-20T17:16:05.454Z,13.46
2023-03-20T17:18:38.987Z,13.55
2023-03-20T17:21:08.272Z,13.62
2023-03-20T17:23:35.985Z,13.57
2023-03-20T17:26:03.557Z,13.60
2023-03-20T17:28:37.030Z,13.50
2023-03-20T17:31:05.350Z,13.70
2023-03-20T17:33:33.782Z,13.61
2023-03-20T17:36:01.829Z,13.47
2023-03-20T17:38:31.436Z,13.47
2023-03-20T17:40:59.087Z,13.62
2023-03-20T17:43:26.652Z,13.78
2023-03-20T17:45:54.348Z,13.65
2023-03-20T17:48:22.414Z,13.80
2023-03-20T17:50:51.301Z,13.67
2023-03-20T17:53:21.155Z,13.53
2023-03-20T17:55:50.200Z,13.69
2023-03-20T17:58:20.904Z,13.74
2023-03-20T18:00:48.828Z,13.43
2023-03-20T18:03:18.003Z,13.32
2023-03-20T18:05:46.624Z,13.16
2023-03-20T18:08:16.419Z,13.01
2023-03-20T18:10:44.813Z,12.92
2023-03-20T18:13:13.832Z,12.89
2023-03-20T18:15:41.865Z,12.82
2023-03-20T18:18:09.660Z,12.77
2023-03-20T18:20:39.667Z,12.74
2023-03-20T18:23:07.527Z,12.70
2023-03-20T18:25:36.014Z,12.70
2023-03-20T18:28:06.696Z,12.67
2023-03-20T18:30:37.950Z,12.55
2023-03-20T18:33:06.233Z,12.50
2023-03-20T18:35:34.232Z,12.46
2023-03-20T18:38:03.817Z,12.39
2023-03-20T18:40:33.318Z,12.32
2023-03-20T18:43:01.299Z,12.23
2023-03-20T18:45:30.665Z,12.19
2023-03-20T18:47:59.899Z,12.18
2023-03-20T18:50:29.801Z,12.19
2023-03-20T18:52:59.234Z,12.19
2023-03-20T18:55:28.613Z,12.13
2023-03-20T18:57:57.120Z,12.11
2023-03-20T19:00:27.137Z,12.08
2023-03-20T19:02:56.452Z,12.05
2023-03-20T19:05:27.640Z,12.03
2023-03-20T19:07:56.228Z,11.99
2023-03-20T19:10:30.260Z,11.94
2023-03-20T19:12:58.409Z,11.91
2023-03-20T19:15:28.193Z,11.89
2023-03-20T19:17:56.812Z,11.84
2023-03-20T19:20:36.049Z,11.80
2023-03-20T19:23:05.425Z,11.77
2023-03-20T19:25:33.497Z,11.71
2023-03-20T19:28:02.189Z,11.68
2023-03-20T19:30:32.531Z,11.69
2023-03-20T19:33:00.542Z,11.67
2023-03-20T19:38:20.654Z,11.56
2023-03-20T19:40:49.293Z,11.55
2023-03-20T19:43:17.197Z,11.55
2023-03-20T19:45:45.874Z,11.59
2023-03-20T19:48:16.580Z,11.58
2023-03-20T19:50:46.698Z,11.55
2023-03-20T19:53:16.607Z,11.49
2023-03-20T19:55:46.342Z,11.44
2023-03-20T19:58:14.663Z,11.36
2023-03-20T20:01:00.806Z,11.38
2023-03-20T20:03:29.029Z,11.37
2023-03-20T20:05:56.893Z,11.37
2023-03-20T20:08:41.018Z,11.38
2023-03-20T20:11:14.971Z,11.34
2023-03-20T20:14:04.183Z,11.28
2023-03-20T20:16:31.606Z,11.24
2023-03-20T20:18:59.215Z,11.21
2023-03-20T20:24:15.920Z,11.17
2023-03-20T20:26:54.487Z,11.12
2023-03-20T20:29:25.451Z,11.15
2023-03-20T20:31:53.174Z,11.19
2023-03-20T20:39:56.346Z,11.28
2023-03-20T20:42:25.363Z,11.24
2023-03-20T20:44:52.868Z,11.20
2023-03-20T20:47:21.198Z,11.19
2023-03-20T20:49:49.021Z,11.17
2023-03-20T20:52:17.437Z,11.14
2023-03-20T20:54:45.041Z,11.11
2023-03-20T20:57:12.891Z,11.09
2023-03-20T20:59:42.088Z,11.13
2023-03-20T21:02:11.868Z,11.12
2023-03-20T21:04:40.489Z,11.15
2023-03-20T21:07:11.556Z,11.13
2023-03-20T21:09:39.893Z,11.12
2023-03-20T21:12:08.588Z,11.09
2023-03-20T21:14:39.562Z,11.10
2023-03-20T21:17:09.972Z,11.09
2023-03-20T21:19:39.794Z,11.06
2023-03-20T21:22:09.024Z,11.05
2023-03-20T21:24:41.199Z,11.03
2023-03-20T21:27:13.712Z,11.08
2023-03-20T21:29:43.015Z,11.11
2023-03-20T21:32:13.581Z,11.07
2023-03-20T21:34:41.557Z,11.05
2023-03-20T21:38:13.105Z,11.04
2023-03-20T21:39:59.102Z,10.99
2023-03-20T21:42:26.970Z,10.96
2023-03-20T21:45:46.283Z,10.94
2023-03-20T21:48:33.339Z,10.91
2023-03-20T21:50:52.911Z,10.90
2023-03-20T21:54:11.038Z,10.86
2023-03-20T21:56:50.467Z,10.82
2023-03-20T21:59:38.127Z,10.80
2023-03-20T22:02:07.733Z,10.82
2023-03-20T22:05:21.872Z,10.77
2023-03-20T22:07:52.104Z,10.72
2023-03-20T22:11:09.463Z,10.65
2023-03-20T22:19:38.505Z,10.53
2023-03-20T22:22:00.039Z,10.56
2023-03-20T22:30:22.906Z,10.52
2023-03-20T22:46:47.450Z,10.45
2023-03-20T22:49:15.945Z,10.47
2023-03-20T22:51:57.492Z,10.46
2023-03-20T22:54:32.100Z,10.45
2023-03-20T22:56:59.693Z,10.48
2023-03-20T22:59:27.257Z,10.46
2023-03-20T23:01:54.859Z,10.44
2023-03-20T23:04:22.447Z,10.41
2023-03-20T23:06:50.007Z,10.43
2023-03-20T23:09:17.823Z,10.46
2023-03-20T23:11:47.289Z,10.47
2023-03-20T23:14:21.351Z,10.47
2023-03-20T23:16:49.815Z,10.48
2023-03-20T23:19:17.452Z,10.48
2023-03-20T23:21:45.077Z,10.47
2023-03-20T23:24:12.622Z,10.41
2023-03-20T23:26:40.336Z,10.38
2023-03-20T23:29:09.434Z,10.39
2023-03-20T23:31:37.049Z,10.36
2023-03-20T23:34:04.716Z,10.34
2023-03-20T23:36:37.024Z,10.34
2023-03-20T23:39:05.977Z,10.30
2023-03-20T23:44:22.625Z,10.27
2023-03-20T23:46:50.491Z,10.22
2023-03-20T23:49:18.342Z,10.23
2023-03-20T23:51:46.305Z,10.22
2023-03-20T23:54:14.263Z,10.22
2023-03-20T23:56:41.943Z,10.25
2023-03-20T23:59:20.705Z,10.19
